PRIVATE WETTERSTATION BILLIGHEIM-ALLFELD                       ZURCK
Wetterdaten: Donnerstag, 02.10.2014
Datum Zeit Temp. A. Temp. A. min Temp. A. max Feuchte A. Luftdruck Regen Wind Richtung Richtung Sonnenschein ET Solar Taupunkt Windchill Windben Empfang
02.10.2014 00:00 12,0 C 12,0 C 12,1 C 90 % 1027,1 hPa 0,0 l/m 0,0 km/h (0 Bft) N 0 0 min 0,000 mm 0 W/m 10,4 C 12,0 C 0,0 km/h (0 Bft) 100 %
02.10.2014 00:10 11,9 C 11,9 C 12,0 C 90 % 1027,1 hPa 0,0 l/m 0,0 km/h (0 Bft) NO 45 0 min 0,000 mm 0 W/m 10,3 C 11,9 C 3,2 km/h (1 Bft) 100 %
02.10.2014 00:20 11,8 C 11,8 C 11,9 C 91 % 1027,0 hPa 0,0 l/m 0,0 km/h (0 Bft) NO 45 0 min 0,000 mm 0 W/m 10,4 C 11,8 C 1,6 km/h (1 Bft) 100 %
02.10.2014 00:30 11,7 C 11,7 C 11,8 C 90 % 1027,1 hPa 0,0 l/m 0,0 km/h (0 Bft) NO 45 0 min 0,000 mm 0 W/m 10,1 C 11,7 C 1,6 km/h (1 Bft) 100 %
02.10.2014 00:40 11,6 C 11,6 C 11,7 C 90 % 1027,1 hPa 0,0 l/m 0,0 km/h (0 Bft) N 0 0 min 0,000 mm 0 W/m 10,0 C 11,6 C 0,0 km/h (0 Bft) 100 %
02.10.2014 00:50 11,5 C 11,5 C 11,6 C 90 % 1027,2 hPa 0,0 l/m 0,0 km/h (0 Bft) N 0 0 min 0,000 mm 0 W/m 9,9 C 11,5 C 0,0 km/h (0 Bft) 100 %
02.10.2014 01:00 11,4 C 11,4 C 11,5 C 90 % 1027,3 hPa 0,0 l/m 0,0 km/h (0 Bft) NO 45 0 min 0,000 mm 0 W/m 9,8 C 11,4 C 3,2 km/h (1 Bft) 100 %
02.10.2014 01:10 11,3 C 11,3 C 11,4 C 90 % 1027,2 hPa 0,0 l/m 0,0 km/h (0 Bft) NO 45 0 min 0,000 mm 0 W/m 9,7 C 11,3 C 1,6 km/h (1 Bft) 98 %
02.10.2014 01:20 11,3 C 11,3 C 11,3 C 90 % 1027,2 hPa 0,0 l/m 0,0 km/h (0 Bft) N 0 0 min 0,000 mm 0 W/m 9,7 C 11,3 C 0,0 km/h (0 Bft) 97 %
02.10.2014 01:30 11,3 C 11,3 C 11,3 C 90 % 1027,2 hPa 0,0 l/m 0,0 km/h (0 Bft) N 0 0 min 0,000 mm 0 W/m 9,7 C 11,3 C 0,0 km/h (0 Bft) 98 %
02.10.2014 01:40 11,3 C 11,3 C 11,3 C 90 % 1027,2 hPa 0,0 l/m 0,0 km/h (0 Bft) NO 45 0 min 0,000 mm 0 W/m 9,7 C 11,3 C 3,2 km/h (1 Bft) 96 %
02.10.2014 01:50 11,1 C 11,1 C 11,3 C 91 % 1027,2 hPa 0,0 l/m 0,0 km/h (0 Bft) NO 45 0 min 0,000 mm 0 W/m 9,7 C 11,1 C 3,2 km/h (1 Bft) 98 %
02.10.2014 02:00 10,8 C 10,8 C 11,1 C 90 % 1027,2 hPa 0,0 l/m 0,0 km/h (0 Bft) NO 45 0 min 0,000 mm 0 W/m 9,2 C 10,8 C 1,6 km/h (1 Bft) 97 %
02.10.2014 02:10 10,8 C 10,8 C 10,9 C 90 % 1027,1 hPa 0,0 l/m 0,0 km/h (0 Bft) N 0 0 min 0,000 mm 0 W/m 9,2 C 10,8 C 0,0 km/h (0 Bft) 98 %
02.10.2014 02:20 10,7 C 10,7 C 10,8 C 90 % 1027,1 hPa 0,0 l/m 0,0 km/h (0 Bft) NO 45 0 min 0,000 mm 0 W/m 9,1 C 10,7 C 1,6 km/h (1 Bft) 98 %
02.10.2014 02:30 10,6 C 10,6 C 10,7 C 90 % 1027,2 hPa 0,0 l/m 0,0 km/h (0 Bft) NO 45 0 min 0,000 mm 0 W/m 9,0 C 10,6 C 3,2 km/h (1 Bft) 96 %
02.10.2014 02:40 10,6 C 10,6 C 10,6 C 90 % 1027,3 hPa 0,0 l/m 0,0 km/h (0 Bft) N 0 0 min 0,000 mm 0 W/m 9,0 C 10,6 C 0,0 km/h (0 Bft) 98 %
02.10.2014 02:50 10,6 C 10,6 C 10,6 C 90 % 1027,3 hPa 0,0 l/m 0,0 km/h (0 Bft) N 0 0 min 0,000 mm 0 W/m 9,0 C 10,6 C 0,0 km/h (0 Bft) 97 %
02.10.2014 03:00 10,4 C 10,4 C 10,6 C 90 % 1027,4 hPa 0,0 l/m 0,0 km/h (0 Bft) N 0 0 min 0,000 mm 0 W/m 8,8 C 10,4 C 0,0 km/h (0 Bft) 98 %
02.10.2014 03:10 10,3 C 10,3 C 10,4 C 90 % 1027,4 hPa 0,0 l/m 0,0 km/h (0 Bft) N 0 0 min 0,000 mm 0 W/m 8,7 C 10,3 C 0,0 km/h (0 Bft) 96 %
02.10.2014 03:20 10,4 C 10,3 C 10,4 C 90 % 1027,3 hPa 0,0 l/m 0,0 km/h (0 Bft) N 0 0 min 0,000 mm 0 W/m 8,8 C 10,4 C 0,0 km/h (0 Bft) 98 %
02.10.2014 03:30 10,4 C 10,4 C 10,4 C 90 % 1027,3 hPa 0,0 l/m 0,0 km/h (0 Bft) N 0 0 min 0,000 mm 0 W/m 8,8 C 10,4 C 0,0 km/h (0 Bft) 98 %
02.10.2014 03:40 10,4 C 10,4 C 10,4 C 90 % 1027,3 hPa 0,0 l/m 0,0 km/h (0 Bft) N 0 0 min 0,000 mm 0 W/m 8,8 C 10,4 C 0,0 km/h (0 Bft) 97 %
02.10.2014 03:50 10,4 C 10,4 C 10,4 C 90 % 1027,2 hPa 0,0 l/m 0,0 km/h (0 Bft) N 0 0 min 0,000 mm 0 W/m 8,8 C 10,4 C 0,0 km/h (0 Bft) 98 %
02.10.2014 04:00 10,4 C 10,4 C 10,4 C 90 % 1027,2 hPa 0,0 l/m 0,0 km/h (0 Bft) N 0 0 min 0,000 mm 0 W/m 8,8 C 10,4 C 0,0 km/h (0 Bft) 97 %
02.10.2014 04:10 10,4 C 10,4 C 10,4 C 90 % 1027,2 hPa 0,0 l/m 0,0 km/h (0 Bft) NO 45 0 min 0,000 mm 0 W/m 8,8 C 10,4 C 1,6 km/h (1 Bft) 98 %
02.10.2014 04:20 10,3 C 10,3 C 10,4 C 90 % 1027,2 hPa 0,0 l/m 0,0 km/h (0 Bft) N 0 0 min 0,000 mm 0 W/m 8,7 C 10,3 C 0,0 km/h (0 Bft) 96 %
02.10.2014 04:30 10,1 C 10,1 C 10,3 C 90 % 1027,3 hPa 0,0 l/m 0,0 km/h (0 Bft) N 0 0 min 0,000 mm 0 W/m 8,5 C 10,1 C 0,0 km/h (0 Bft) 98 %
02.10.2014 04:40 10,0 C 10,0 C 10,1 C 90 % 1027,3 hPa 0,0 l/m 0,0 km/h (0 Bft) N 0 0 min 0,000 mm 0 W/m 8,4 C 10,0 C 0,0 km/h (0 Bft) 97 %
02.10.2014 04:50 9,9 C 9,9 C 10,0 C 90 % 1027,3 hPa 0,0 l/m 0,0 km/h (0 Bft) NO 45 0 min 0,000 mm 0 W/m 8,3 C 9,9 C 1,6 km/h (1 Bft) 97 %
02.10.2014 05:00 9,7 C 9,7 C 9,9 C 90 % 1027,3 hPa 0,0 l/m 0,0 km/h (0 Bft) N 0 0 min 0,000 mm 0 W/m 8,1 C 9,7 C 0,0 km/h (0 Bft) 98 %
02.10.2014 05:10 9,6 C 9,6 C 9,7 C 90 % 1027,4 hPa 0,0 l/m 0,0 km/h (0 Bft) NO 45 0 min 0,000 mm 0 W/m 8,0 C 9,6 C 1,6 km/h (1 Bft) 97 %
02.10.2014 05:20 9,5 C 9,5 C 9,6 C 90 % 1027,4 hPa 0,0 l/m 0,0 km/h (0 Bft) N 0 0 min 0,000 mm 0 W/m 7,9 C 9,5 C 0,0 km/h (0 Bft) 98 %
02.10.2014 05:30 9,5 C 9,5 C 9,5 C 90 % 1027,4 hPa 0,0 l/m 0,0 km/h (0 Bft) N 0 0 min 0,000 mm 0 W/m 7,9 C 9,5 C 0,0 km/h (0 Bft) 96 %
02.10.2014 05:40 9,4 C 9,4 C 9,5 C 90 % 1027,4 hPa 0,0 l/m 0,0 km/h (0 Bft) N 0 0 min 0,000 mm 0 W/m 7,8 C 9,4 C 0,0 km/h (0 Bft) 97 %
02.10.2014 05:50 9,3 C 9,3 C 9,4 C 90 % 1027,4 hPa 0,0 l/m 0,0 km/h (0 Bft) N 0 0 min 0,000 mm 0 W/m 7,7 C 9,3 C 0,0 km/h (0 Bft) 98 %
02.10.2014 06:00 9,2 C 9,2 C 9,3 C 91 % 1027,6 hPa 0,0 l/m 0,0 km/h (0 Bft) N 0 0 min 0,000 mm 0 W/m 7,8 C 9,2 C 0,0 km/h (0 Bft) 97 %
02.10.2014 06:10 9,1 C 9,1 C 9,2 C 91 % 1027,6 hPa 0,0 l/m 0,0 km/h (0 Bft) N 0 0 min 0,000 mm 0 W/m 7,7 C 9,1 C 0,0 km/h (0 Bft) 98 %
02.10.2014 06:20 8,9 C 8,9 C 9,1 C 90 % 1027,5 hPa 0,0 l/m 0,0 km/h (0 Bft) N 0 0 min 0,000 mm 0 W/m 7,4 C 8,9 C 0,0 km/h (0 Bft) 97 %
02.10.2014 06:30 8,8 C 8,8 C 8,9 C 91 % 1027,6 hPa 0,0 l/m 0,0 km/h (0 Bft) N 0 0 min 0,000 mm 0 W/m 7,4 C 8,8 C 0,0 km/h (0 Bft) 98 %
02.10.2014 06:40 8,9 C 8,8 C 8,9 C 90 % 1027,6 hPa 0,0 l/m 0,0 km/h (0 Bft) N 0 0 min 0,000 mm 0 W/m 7,4 C 8,9 C 0,0 km/h (0 Bft) 97 %
02.10.2014 06:50 9,1 C 8,9 C 9,1 C 90 % 1027,8 hPa 0,0 l/m 0,0 km/h (0 Bft) N 0 0 min 0,000 mm 0 W/m 7,5 C 9,1 C 0,0 km/h (0 Bft) 98 %
02.10.2014 07:00 9,1 C 9,1 C 9,1 C 90 % 1027,7 hPa 0,0 l/m 0,0 km/h (0 Bft) N 0 0 min 0,000 mm 0 W/m 7,5 C 9,1 C 0,0 km/h (0 Bft) 98 %
02.10.2014 07:10 9,1 C 9,1 C 9,1 C 90 % 1027,8 hPa 0,0 l/m 0,0 km/h (0 Bft) N 0 0 min 0,000 mm 0 W/m 7,5 C 9,1 C 0,0 km/h (0 Bft) 97 %
02.10.2014 07:20 8,8 C 8,8 C 9,1 C 91 % 1027,9 hPa 0,0 l/m 0,0 km/h (0 Bft) NO 45 0 min 0,000 mm 0 W/m 7,4 C 8,8 C 3,2 km/h (1 Bft) 98 %
02.10.2014 07:30 8,7 C 8,7 C 8,8 C 90 % 1027,9 hPa 0,0 l/m 0,0 km/h (0 Bft) N 0 0 min 0,000 mm 5 W/m 7,2 C 8,7 C 0,0 km/h (0 Bft) 97 %
02.10.2014 07:40 8,6 C 8,6 C 8,7 C 90 % 1028,0 hPa 0,0 l/m 0,0 km/h (0 Bft) N 0 0 min 0,000 mm 11 W/m 7,1 C 8,6 C 0,0 km/h (0 Bft) 98 %
02.10.2014 07:50 8,5 C 8,5 C 8,6 C 91 % 1028,1 hPa 0,0 l/m 0,0 km/h (0 Bft) N 0 0 min 0,000 mm 16 W/m 7,1 C 8,5 C 0,0 km/h (0 Bft) 97 %
02.10.2014 08:00 8,4 C 8,4 C 8,5 C 91 % 1028,1 hPa 0,0 l/m 0,0 km/h (0 Bft) N 0 0 min 0,000 mm 23 W/m 7,0 C 8,4 C 0,0 km/h (0 Bft) 98 %
02.10.2014 08:10 8,4 C 8,4 C 8,4 C 91 % 1028,0 hPa 0,0 l/m 0,0 km/h (0 Bft) N 0 0 min 0,000 mm 30 W/m 7,0 C 8,4 C 0,0 km/h (0 Bft) 98 %
02.10.2014 08:20 8,4 C 8,4 C 8,4 C 91 % 1028,1 hPa 0,0 l/m 0,0 km/h (0 Bft) NO 45 0 min 0,000 mm 37 W/m 7,0 C 8,4 C 1,6 km/h (1 Bft) 97 %
02.10.2014 08:30 8,5 C 8,4 C 8,5 C 90 % 1028,1 hPa 0,0 l/m 0,0 km/h (0 Bft) NO 45 0 min 0,000 mm 42 W/m 7,0 C 8,5 C 3,2 km/h (1 Bft) 97 %
02.10.2014 08:40 8,6 C 8,5 C 8,6 C 90 % 1028,2 hPa 0,0 l/m 0,0 km/h (0 Bft) NO 45 0 min 0,000 mm 86 W/m 7,1 C 8,6 C 3,2 km/h (1 Bft) 97 %
02.10.2014 08:50 9,1 C 8,6 C 9,1 C 90 % 1028,2 hPa 0,0 l/m 0,0 km/h (0 Bft) NO 45 10 min 0,000 mm 162 W/m 7,5 C 9,1 C 1,6 km/h (1 Bft) 98 %
02.10.2014 09:00 9,8 C 9,1 C 9,8 C 91 % 1028,3 hPa 0,0 l/m 0,0 km/h (0 Bft) NO 45 10 min 0,025 mm 185 W/m 8,4 C 9,8 C 3,2 km/h (1 Bft) 97 %
02.10.2014 09:10 10,4 C 9,8 C 10,4 C 91 % 1028,3 hPa 0,0 l/m 0,0 km/h (0 Bft) NO 45 10 min 0,000 mm 211 W/m 9,0 C 10,4 C 3,2 km/h (1 Bft) 98 %
02.10.2014 09:20 10,8 C 10,4 C 10,8 C 91 % 1028,5 hPa 0,0 l/m 0,0 km/h (0 Bft) NO 45 10 min 0,000 mm 230 W/m 9,4 C 10,8 C 1,6 km/h (1 Bft) 98 %
02.10.2014 09:30 11,3 C 10,9 C 11,3 C 91 % 1028,5 hPa 0,0 l/m 0,0 km/h (0 Bft) N 0 10 min 0,000 mm 251 W/m 9,9 C 11,3 C 0,0 km/h (0 Bft) 97 %
02.10.2014 09:40 11,8 C 11,3 C 11,8 C 91 % 1028,5 hPa 0,0 l/m 0,0 km/h (0 Bft) N 0 10 min 0,000 mm 274 W/m 10,4 C 11,8 C 0,0 km/h (0 Bft) 98 %
02.10.2014 09:50 12,3 C 11,9 C 12,3 C 91 % 1028,4 hPa 0,0 l/m 0,0 km/h (0 Bft) N 0 10 min 0,000 mm 297 W/m 10,9 C 12,3 C 0,0 km/h (0 Bft) 97 %
02.10.2014 10:00 12,9 C 12,3 C 12,9 C 91 % 1028,4 hPa 0,0 l/m 0,0 km/h (0 Bft) NO 45 10 min 0,127 mm 322 W/m 11,5 C 12,9 C 1,6 km/h (1 Bft) 98 %
02.10.2014 10:10 14,0 C 12,9 C 14,0 C 91 % 1028,4 hPa 0,0 l/m 0,0 km/h (0 Bft) NO 45 10 min 0,000 mm 339 W/m 12,6 C 14,0 C 1,6 km/h (1 Bft) 97 %
02.10.2014 10:20 14,7 C 14,0 C 14,7 C 91 % 1028,4 hPa 0,0 l/m 0,0 km/h (0 Bft) NO 45 10 min 0,000 mm 360 W/m 13,2 C 14,7 C 1,6 km/h (1 Bft) 98 %
02.10.2014 10:30 15,3 C 14,7 C 15,3 C 91 % 1028,5 hPa 0,0 l/m 0,0 km/h (0 Bft) NO 45 10 min 0,000 mm 378 W/m 13,8 C 15,3 C 1,6 km/h (1 Bft) 97 %
02.10.2014 10:40 15,7 C 14,7 C 15,7 C 90 % 1028,4 hPa 0,0 l/m 0,9 km/h (0 Bft) S 179 10 min 0,000 mm 399 W/m 14,1 C 15,7 C 4,8 km/h (1 Bft) 100 %
02.10.2014 10:50 16,3 C 15,7 C 16,3 C 91 % 1028,4 hPa 0,0 l/m 0,2 km/h (0 Bft) S 180 10 min 0,000 mm 422 W/m 14,8 C 16,3 C 3,2 km/h (1 Bft) 100 %
02.10.2014 11:00 16,6 C 16,3 C 16,6 C 90 % 1028,4 hPa 0,0 l/m 0,6 km/h (0 Bft) S 182 10 min 0,000 mm 443 W/m 15,0 C 16,6 C 4,8 km/h (1 Bft) 100 %
02.10.2014 11:10 17,0 C 16,6 C 17,0 C 90 % 1028,4 hPa 0,0 l/m 0,4 km/h (0 Bft) S 183 10 min 0,203 mm 464 W/m 15,3 C 17,0 C 4,8 km/h (1 Bft) 100 %
02.10.2014 11:20 17,3 C 17,0 C 17,3 C 88 % 1028,5 hPa 0,0 l/m 1,2 km/h (1 Bft) S-SW 198 10 min 0,001 mm 480 W/m 15,3 C 17,3 C 4,8 km/h (1 Bft) 99 %
02.10.2014 11:30 17,3 C 17,3 C 17,3 C 88 % 1028,3 hPa 0,0 l/m 0,8 km/h (0 Bft) S-SW 202 10 min 0,000 mm 501 W/m 15,3 C 17,3 C 4,8 km/h (1 Bft) 100 %
02.10.2014 11:40 17,8 C 17,3 C 17,8 C 88 % 1028,3 hPa 0,0 l/m 1,0 km/h (0 Bft) S-SW 201 10 min 0,000 mm 517 W/m 15,8 C 17,8 C 4,8 km/h (1 Bft) 100 %
02.10.2014 11:50 18,2 C 17,8 C 18,2 C 88 % 1028,3 hPa 0,0 l/m 0,8 km/h (0 Bft) SW 225 10 min 0,000 mm 526 W/m 16,2 C 18,2 C 4,8 km/h (1 Bft) 100 %
02.10.2014 12:00 18,4 C 18,2 C 18,4 C 87 % 1028,3 hPa 0,0 l/m 0,7 km/h (0 Bft) SW 219 10 min 0,279 mm 540 W/m 16,2 C 18,4 C 6,4 km/h (2 Bft) 99 %
02.10.2014 12:10 18,9 C 18,4 C 18,9 C 88 % 1028,1 hPa 0,0 l/m 1,3 km/h (1 Bft) SW 218 10 min 0,000 mm 541 W/m 16,9 C 18,9 C 4,8 km/h (1 Bft) 100 %
02.10.2014 12:20 19,3 C 18,9 C 19,3 C 86 % 1028,0 hPa 0,0 l/m 1,2 km/h (1 Bft) S-SW 209 10 min 0,000 mm 575 W/m 16,9 C 19,3 C 6,4 km/h (2 Bft) 100 %
02.10.2014 12:30 19,6 C 19,3 C 19,6 C 85 % 1027,9 hPa 0,0 l/m 1,4 km/h (1 Bft) SW 216 10 min 0,000 mm 555 W/m 17,0 C 19,6 C 8,0 km/h (2 Bft) 100 %
02.10.2014 12:40 19,7 C 19,6 C 19,7 C 79 % 1027,9 hPa 0,0 l/m 0,4 km/h (0 Bft) O 94 10 min 0,000 mm 550 W/m 16,0 C 19,7 C 6,4 km/h (2 Bft) 100 %
02.10.2014 12:50 19,9 C 19,7 C 19,9 C 77 % 1027,9 hPa 0,0 l/m 1,9 km/h (1 Bft) O-SO 103 10 min 0,000 mm 589 W/m 15,7 C 19,9 C 9,7 km/h (2 Bft) 100 %
02.10.2014 13:00 20,0 C 19,8 C 20,0 C 74 % 1027,8 hPa 0,0 l/m 0,9 km/h (0 Bft) O 85 10 min 0,305 mm 564 W/m 15,2 C 20,0 C 11,3 km/h (2 Bft) 100 %
02.10.2014 13:10 20,3 C 20,0 C 20,3 C 73 % 1027,7 hPa 0,0 l/m 0,6 km/h (0 Bft) N 5 10 min 0,000 mm 598 W/m 15,3 C 20,3 C 6,4 km/h (2 Bft) 100 %
02.10.2014 13:20 20,4 C 20,3 C 20,4 C 75 % 1027,7 hPa 0,0 l/m 0,9 km/h (0 Bft) N-NW 331 10 min 0,000 mm 580 W/m 15,8 C 20,4 C 6,4 km/h (2 Bft) 100 %
02.10.2014 13:30 20,5 C 20,3 C 20,5 C 73 % 1027,6 hPa 0,0 l/m 0,8 km/h (0 Bft) O-SO 113 10 min 0,000 mm 587 W/m 15,5 C 20,5 C 6,4 km/h (2 Bft) 100 %
02.10.2014 13:40 20,5 C 20,5 C 20,6 C 73 % 1027,5 hPa 0,0 l/m 0,5 km/h (0 Bft) O-SO 118 10 min 0,000 mm 566 W/m 15,5 C 20,5 C 6,4 km/h (2 Bft) 100 %
02.10.2014 13:50 20,6 C 20,5 C 20,6 C 70 % 1027,3 hPa 0,0 l/m 1,0 km/h (0 Bft) O 90 10 min 0,000 mm 578 W/m 14,9 C 20,6 C 8,0 km/h (2 Bft) 100 %
02.10.2014 14:00 20,7 C 20,6 C 20,8 C 68 % 1027,3 hPa 0,0 l/m 1,1 km/h (1 Bft) S-SO 154 10 min 0,330 mm 564 W/m 14,6 C 20,7 C 8,0 km/h (2 Bft) 100 %
02.10.2014 14:10 20,7 C 20,7 C 20,8 C 72 % 1027,3 hPa 0,0 l/m 0,5 km/h (0 Bft) N-NO 15 10 min 0,000 mm 555 W/m 15,5 C 20,7 C 8,0 km/h (2 Bft) 100 %
02.10.2014 14:20 20,7 C 20,7 C 20,8 C 69 % 1027,2 hPa 0,0 l/m 1,4 km/h (1 Bft) SO 125 10 min 0,000 mm 559 W/m 14,8 C 20,7 C 8,0 km/h (2 Bft) 100 %
02.10.2014 14:30 20,8 C 20,7 C 20,8 C 70 % 1027,1 hPa 0,0 l/m 0,5 km/h (0 Bft) O-SO 103 10 min 0,000 mm 548 W/m 15,1 C 20,8 C 11,3 km/h (2 Bft) 100 %
02.10.2014 14:40 20,8 C 20,7 C 20,9 C 69 % 1026,9 hPa 0,0 l/m 0,2 km/h (0 Bft) W 267 10 min 0,000 mm 417 W/m 14,9 C 20,8 C 6,4 km/h (2 Bft) 100 %
02.10.2014 14:50 20,8 C 20,8 C 20,9 C 67 % 1026,9 hPa 0,0 l/m 0,9 km/h (0 Bft) NW 325 10 min 0,000 mm 181 W/m 14,4 C 20,8 C 9,7 km/h (2 Bft) 100 %
02.10.2014 15:00 21,0 C 20,8 C 21,0 C 70 % 1026,9 hPa 0,0 l/m 0,1 km/h (0 Bft) S-SO 151 10 min 0,305 mm 555 W/m 15,3 C 21,0 C 3,2 km/h (1 Bft) 100 %
02.10.2014 15:10 21,3 C 21,0 C 21,3 C 67 % 1026,9 hPa 0,0 l/m 1,5 km/h (1 Bft) N 10 10 min 0,000 mm 499 W/m 14,9 C 21,3 C 9,7 km/h (2 Bft) 100 %
02.10.2014 15:20 21,5 C 21,2 C 21,5 C 67 % 1026,8 hPa 0,0 l/m 0,1 km/h (0 Bft) N-NW 336 10 min 0,000 mm 448 W/m 15,1 C 21,5 C 3,2 km/h (1 Bft) 100 %
02.10.2014 15:30 21,3 C 21,3 C 21,5 C 67 % 1026,6 hPa 0,0 l/m 0,5 km/h (0 Bft) NO 45 10 min 0,000 mm 441 W/m 14,9 C 21,3 C 6,4 km/h (2 Bft) 100 %
02.10.2014 15:40 21,4 C 21,3 C 21,4 C 64 % 1026,6 hPa 0,0 l/m 0,7 km/h (0 Bft) SO 132 10 min 0,000 mm 441 W/m 14,3 C 21,4 C 9,7 km/h (2 Bft) 100 %
02.10.2014 15:50 21,5 C 21,4 C 21,5 C 65 % 1026,6 hPa 0,0 l/m 0,3 km/h (0 Bft) NO 49 0 min 0,000 mm 88 W/m 14,6 C 21,5 C 11,3 km/h (2 Bft) 99 %
02.10.2014 16:00 21,5 C 21,4 C 21,5 C 67 % 1026,4 hPa 0,0 l/m 0,0 km/h (0 Bft) O-NO 69 0 min 0,203 mm 77 W/m 15,1 C 21,5 C 1,6 km/h (1 Bft) 100 %
02.10.2014 16:10 21,4 C 21,4 C 21,5 C 65 % 1026,3 hPa 0,0 l/m 0,1 km/h (0 Bft) SO 132 0 min 0,000 mm 76 W/m 14,5 C 21,4 C 3,2 km/h (1 Bft) 100 %
02.10.2014 16:20 21,3 C 21,3 C 21,4 C 64 % 1026,2 hPa 0,0 l/m 0,0 km/h (0 Bft) N 360 0 min 0,000 mm 77 W/m 14,2 C 21,3 C 1,6 km/h (1 Bft) 100 %
02.10.2014 16:30 21,2 C 21,2 C 21,3 C 64 % 1026,2 hPa 0,0 l/m 0,0 km/h (0 Bft) NW 318 0 min 0,000 mm 76 W/m 14,1 C 21,2 C 1,6 km/h (1 Bft) 100 %
02.10.2014 16:40 21,1 C 21,1 C 21,2 C 63 % 1026,1 hPa 0,0 l/m 0,1 km/h (0 Bft) O 101 0 min 0,000 mm 70 W/m 13,8 C 21,1 C 3,2 km/h (1 Bft) 100 %
02.10.2014 16:50 20,8 C 20,8 C 21,1 C 65 % 1026,2 hPa 0,0 l/m 0,0 km/h (0 Bft) N 351 0 min 0,000 mm 67 W/m 14,0 C 20,8 C 1,6 km/h (1 Bft) 100 %
02.10.2014 17:00 20,7 C 20,7 C 20,8 C 66 % 1026,1 hPa 0,0 l/m 0,0 km/h (0 Bft) O-SO 122 0 min 0,051 mm 60 W/m 14,1 C 20,7 C 1,6 km/h (1 Bft) 100 %
02.10.2014 17:10 20,5 C 20,5 C 20,7 C 69 % 1026,1 hPa 0,0 l/m 0,2 km/h (0 Bft) S 169 0 min 0,000 mm 49 W/m 14,6 C 20,5 C 6,4 km/h (2 Bft) 100 %
02.10.2014 17:20 20,4 C 20,3 C 20,6 C 72 % 1026,1 hPa 0,0 l/m 0,0 km/h (0 Bft) S 169 0 min 0,000 mm 46 W/m 15,2 C 20,4 C 1,6 km/h (1 Bft) 100 %
02.10.2014 17:30 20,1 C 20,1 C 20,4 C 70 % 1026,1 hPa 0,0 l/m 0,0 km/h (0 Bft) S 169 0 min 0,000 mm 40 W/m 14,5 C 20,1 C 1,6 km/h (1 Bft) 100 %
02.10.2014 17:40 19,8 C 19,8 C 20,1 C 73 % 1026,2 hPa 0,0 l/m 0,0 km/h (0 Bft) S 169 0 min 0,000 mm 42 W/m 14,8 C 19,8 C 0,0 km/h (0 Bft) 100 %
02.10.2014 17:50 19,6 C 19,6 C 19,8 C 73 % 1026,1 hPa 0,0 l/m 0,0 km/h (0 Bft) S 170 0 min 0,000 mm 40 W/m 14,6 C 19,6 C 1,6 km/h (1 Bft) 100 %
02.10.2014 18:00 19,3 C 19,3 C 19,6 C 73 % 1026,1 hPa 0,0 l/m 0,0 km/h (0 Bft) S 170 0 min 0,025 mm 35 W/m 14,3 C 19,3 C 0,0 km/h (0 Bft) 100 %
02.10.2014 18:10 19,1 C 19,1 C 19,3 C 75 % 1026,0 hPa 0,0 l/m 0,0 km/h (0 Bft) S-SO 167 0 min 0,000 mm 28 W/m 14,6 C 19,1 C 1,6 km/h (1 Bft) 100 %
02.10.2014 18:20 18,8 C 18,7 C 19,1 C 74 % 1026,1 hPa 0,0 l/m 0,0 km/h (0 Bft) S-SO 165 0 min 0,000 mm 19 W/m 14,1 C 18,8 C 0,0 km/h (0 Bft) 100 %
02.10.2014 18:30 18,4 C 18,4 C 18,8 C 76 % 1026,1 hPa 0,0 l/m 0,0 km/h (0 Bft) S-SO 165 0 min 0,000 mm 11 W/m 14,1 C 18,4 C 0,0 km/h (0 Bft) 100 %
02.10.2014 18:40 17,9 C 17,9 C 18,4 C 75 % 1026,1 hPa 0,0 l/m 0,0 km/h (0 Bft) S-SO 165 0 min 0,000 mm 11 W/m 13,4 C 17,9 C 0,0 km/h (0 Bft) 100 %
02.10.2014 18:50 17,5 C 17,5 C 17,9 C 77 % 1026,2 hPa 0,0 l/m 0,2 km/h (0 Bft) O-NO 59 0 min 0,000 mm 5 W/m 13,4 C 17,5 C 4,8 km/h (1 Bft) 100 %
02.10.2014 19:00 17,1 C 17,1 C 17,5 C 78 % 1026,2 hPa 0,0 l/m 0,0 km/h (0 Bft) O-NO 63 0 min 0,026 mm 0 W/m 13,2 C 17,1 C 1,6 km/h (1 Bft) 100 %
02.10.2014 19:10 16,8 C 16,8 C 17,1 C 78 % 1026,2 hPa 0,0 l/m 0,1 km/h (0 Bft) O-NO 67 0 min 0,000 mm 0 W/m 12,9 C 16,8 C 1,6 km/h (1 Bft) 91 %
02.10.2014 19:20 16,6 C 16,6 C 16,8 C 79 % 1026,2 hPa 0,0 l/m 0,1 km/h (0 Bft) O 90 0 min 0,000 mm 0 W/m 12,9 C 16,6 C 3,2 km/h (1 Bft) 100 %
02.10.2014 19:30 16,4 C 16,4 C 16,6 C 80 % 1026,3 hPa 0,0 l/m 0,0 km/h (0 Bft) O 91 0 min 0,000 mm 0 W/m 12,9 C 16,4 C 1,6 km/h (1 Bft) 100 %
02.10.2014 19:40 16,2 C 16,2 C 16,4 C 81 % 1026,2 hPa 0,0 l/m 0,0 km/h (0 Bft) O 91 0 min 0,000 mm 0 W/m 12,9 C 16,2 C 1,6 km/h (1 Bft) 100 %
02.10.2014 19:50 16,1 C 16,0 C 16,2 C 82 % 1026,3 hPa 0,0 l/m 0,1 km/h (0 Bft) O 89 0 min 0,000 mm 0 W/m 13,0 C 16,1 C 3,2 km/h (1 Bft) 100 %
02.10.2014 20:00 15,7 C 15,7 C 16,1 C 83 % 1026,5 hPa 0,0 l/m 0,0 km/h (0 Bft) O 88 0 min 0,000 mm 0 W/m 12,8 C 15,7 C 1,6 km/h (1 Bft) 100 %
02.10.2014 20:10 15,3 C 15,3 C 15,7 C 85 % 1026,5 hPa 0,0 l/m 0,0 km/h (0 Bft) O 88 0 min 0,000 mm 0 W/m 12,8 C 15,3 C 1,6 km/h (1 Bft) 100 %
02.10.2014 20:20 15,0 C 15,0 C 15,3 C 86 % 1026,4 hPa 0,0 l/m 0,0 km/h (0 Bft) N-NO 32 0 min 0,000 mm 0 W/m 12,7 C 15,0 C 1,6 km/h (1 Bft) 100 %
02.10.2014 20:30 14,6 C 14,6 C 15,0 C 87 % 1026,4 hPa 0,0 l/m 0,0 km/h (0 Bft) N-NO 32 0 min 0,000 mm 0 W/m 12,5 C 14,6 C 1,6 km/h (1 Bft) 100 %
02.10.2014 20:40 14,3 C 14,3 C 14,6 C 88 % 1026,4 hPa 0,0 l/m 0,0 km/h (0 Bft) N-NO 32 0 min 0,000 mm 0 W/m 12,3 C 14,3 C 1,6 km/h (1 Bft) 100 %
02.10.2014 20:50 14,0 C 14,0 C 14,3 C 88 % 1026,5 hPa 0,0 l/m 0,0 km/h (0 Bft) N-NO 32 0 min 0,000 mm 0 W/m 12,0 C 14,0 C 0,0 km/h (0 Bft) 100 %
02.10.2014 21:00 13,8 C 13,8 C 14,0 C 89 % 1026,6 hPa 0,0 l/m 0,5 km/h (0 Bft) N-NO 32 0 min 0,000 mm 0 W/m 12,0 C 13,8 C 3,2 km/h (1 Bft) 100 %
02.10.2014 21:10 13,7 C 13,7 C 13,8 C 89 % 1026,6 hPa 0,0 l/m 1,6 km/h (1 Bft) N-NO 22 0 min 0,000 mm 0 W/m 11,9 C 13,7 C 3,2 km/h (1 Bft) 97 %
02.10.2014 21:20 13,6 C 13,6 C 13,7 C 89 % 1026,5 hPa 0,0 l/m 0,0 km/h (0 Bft) N 0 0 min 0,000 mm 0 W/m 11,8 C 13,6 C 0,0 km/h (0 Bft) 98 %
02.10.2014 21:30 13,4 C 13,4 C 13,6 C 89 % 1026,7 hPa 0,0 l/m 1,6 km/h (1 Bft) N-NO 22 0 min 0,000 mm 0 W/m 11,6 C 13,4 C 4,8 km/h (1 Bft) 97 %
02.10.2014 21:40 13,3 C 13,3 C 13,4 C 90 % 1026,6 hPa 0,0 l/m 0,0 km/h (0 Bft) N 360 0 min 0,000 mm 0 W/m 11,7 C 13,3 C 3,2 km/h (1 Bft) 98 %
02.10.2014 21:50 13,1 C 13,1 C 13,3 C 90 % 1026,6 hPa 0,0 l/m 0,0 km/h (0 Bft) N 360 0 min 0,000 mm 0 W/m 11,5 C 13,1 C 1,6 km/h (1 Bft) 98 %
02.10.2014 22:00 12,9 C 12,9 C 13,1 C 90 % 1026,7 hPa 0,0 l/m 1,6 km/h (1 Bft) N 360 0 min 0,000 mm 0 W/m 11,3 C 12,9 C 3,2 km/h (1 Bft) 97 %
02.10.2014 22:10 12,8 C 12,8 C 12,9 C 90 % 1026,7 hPa 0,0 l/m 0,0 km/h (0 Bft) N 360 0 min 0,000 mm 0 W/m 11,2 C 12,8 C 4,8 km/h (1 Bft) 98 %
02.10.2014 22:20 12,7 C 12,7 C 12,8 C 90 % 1026,6 hPa 0,0 l/m 1,6 km/h (1 Bft) N 360 0 min 0,000 mm 0 W/m 11,1 C 12,7 C 3,2 km/h (1 Bft) 97 %
02.10.2014 22:30 12,6 C 12,6 C 12,7 C 90 % 1026,6 hPa 0,0 l/m 0,0 km/h (0 Bft) N 360 0 min 0,000 mm 0 W/m 11,0 C 12,6 C 1,6 km/h (1 Bft) 98 %
02.10.2014 22:40 12,6 C 12,6 C 12,6 C 90 % 1026,5 hPa 0,0 l/m 0,0 km/h (0 Bft) N 360 0 min 0,000 mm 0 W/m 11,0 C 12,6 C 1,6 km/h (1 Bft) 98 %
02.10.2014 22:50 12,4 C 12,4 C 12,6 C 90 % 1026,5 hPa 0,0 l/m 0,0 km/h (0 Bft) N 360 0 min 0,000 mm 0 W/m 10,8 C 12,4 C 1,6 km/h (1 Bft) 97 %
02.10.2014 23:00 12,3 C 12,3 C 12,4 C 90 % 1026,4 hPa 0,0 l/m 1,6 km/h (1 Bft) N 360 0 min 0,000 mm 0 W/m 10,7 C 12,3 C 4,8 km/h (1 Bft) 98 %
02.10.2014 23:10 12,3 C 12,3 C 12,3 C 90 % 1026,4 hPa 0,0 l/m 0,0 km/h (0 Bft) N 360 0 min 0,000 mm 0 W/m 10,7 C 12,3 C 1,6 km/h (1 Bft) 97 %
02.10.2014 23:20 12,4 C 12,3 C 12,4 C 90 % 1026,4 hPa 0,0 l/m 0,0 km/h (0 Bft) N 360 0 min 0,000 mm 0 W/m 10,8 C 12,4 C 1,6 km/h (1 Bft) 98 %
02.10.2014 23:30 12,4 C 12,4 C 12,4 C 90 % 1026,3 hPa 0,0 l/m 0,0 km/h (0 Bft) N 360 0 min 0,000 mm 0 W/m 10,8 C 12,4 C 3,2 km/h (1 Bft) 97 %
02.10.2014 23:40 12,4 C 12,4 C 12,4 C 90 % 1026,3 hPa 0,0 l/m 0,0 km/h (0 Bft) N 360 0 min 0,000 mm 0 W/m 10,8 C 12,4 C 1,6 km/h (1 Bft) 97 %
02.10.2014 23:50 12,3 C 12,3 C 12,4 C 90 % 1026,4 hPa 0,0 l/m 0,0 km/h (0 Bft) N 360 0 min 0,000 mm 0 W/m 10,7 C 12,3 C 1,6 km/h (1 Bft) 98 %
_ Min-Zeit 08:00 08:00 08:10 16:40 18:10 - 00:00 - - - - - 08:30 08:00 00:00 19:10
Minimum _ 8,4 C 8,4 C 8,4 C 63 % 1026,0 hPa - 0,0 km/h (0 Bft) - - - - - 7,0 C 8,4 C 0,0 km/h (0 Bft) 91 %
_ Max-Zeit 15:20 15:50 15:20 00:20 09:20 00:00 12:50 - - 08:50 14:00 13:10 12:30 15:20 13:00 00:00
Maximum _ 21,5 C 21,4 C 21,5 C 91 % 1028,5 hPa 0,0 l/m 1,9 km/h
O-SO (1 Bft)
- - 10 min 0,330 mm 598 W/m 17,0 C 21,5 C 11,3 km/h
SO (2 Bft)
100 %
Durchschnitt _ 14,4 C 14,3 C 14,5 C 84 % 1027,2 hPa #0,0 l/m 0,2 km/h (0 Bft) N - #7:00 h #1,880 mm 289 W/m 11,6 C 14,4 C 2,6 km/h (1 Bft) 99 %
PRIVATE WETTERSTATION BILLIGHEIM-ALLFELD - www.neckar-odenwald-wetter.de - Holger Sonntag